Permanente, California
Current Conditions -  °F | °C
As of 6:56 PM on Tuesday 21 Oct 2014 (Local Time) from KNUQ Reporting Station
Clear Clear  
Wind Chill: 17°   Ceiling: Unl
Heat Index: 17°   Visibility: 10mi
Dew Point:   Wind: 7mph
Humidity: 54%   Direction: 300°WNW
Pressure: 30.03"   Gusts: NA
Location:  37.305°N, 122.094°W
Report Text: KNUQ 220156Z 30006KT 10SM CLR 17/08 A3003 RMK AO2 SLP170 T01720078
Loading
Personal Weather Stations






























Interactive Weather Map
Tropical Storm Tracking
New forecast layout! Learn more

10-Day Weather Forecast

Advertisements
Track Severe Weather on mobile